createdAt,value
2023-03-16T00:00:41.001Z,0.54
2023-03-16T00:03:23.503Z,0.53
2023-03-16T00:05:56.768Z,0.51
2023-03-16T00:08:29.007Z,0.50
2023-03-16T00:11:02.795Z,0.46
2023-03-16T00:13:34.819Z,0.42
2023-03-16T00:16:07.881Z,0.37
2023-03-16T00:18:41.351Z,0.34
2023-03-16T00:21:26.372Z,0.31
2023-03-16T00:24:04.303Z,0.27
2023-03-16T00:26:36.498Z,0.24
2023-03-16T00:29:08.503Z,0.21
2023-03-16T00:31:44.303Z,0.17
2023-03-16T00:34:16.640Z,0.12
2023-03-16T00:36:48.608Z,0.07
2023-03-16T00:39:20.670Z,0.05
2023-03-16T00:41:52.659Z,0.05
2023-03-16T00:44:25.310Z,0.04
2023-03-16T00:46:57.889Z,0.06
2023-03-16T00:49:29.878Z,0.07
2023-03-16T00:52:01.909Z,0.11
2023-03-16T00:54:34.612Z,0.14
2023-03-16T00:57:06.859Z,0.16
2023-03-16T00:59:39.541Z,0.19
2023-03-16T01:02:12.945Z,0.19
2023-03-16T01:04:45.494Z,0.18
2023-03-16T01:07:17.628Z,0.16
2023-03-16T01:09:49.911Z,0.12
2023-03-16T01:12:22.781Z,0.07
2023-03-16T01:14:55.861Z,0.03
2023-03-16T01:17:28.314Z,0.00
2023-03-16T01:20:00.907Z,-0.01
2023-03-16T01:22:33.877Z,-0.06
2023-03-16T01:25:08.286Z,-0.09
2023-03-16T01:27:40.659Z,-0.14
2023-03-16T01:30:14.796Z,-0.20
2023-03-16T01:32:47.401Z,-0.26
2023-03-16T01:35:21.613Z,-0.26
2023-03-16T01:37:54.568Z,-0.26
2023-03-16T01:40:31.340Z,-0.25
2023-03-16T01:43:05.785Z,-0.23
2023-03-16T01:46:21.496Z,-0.22
2023-03-16T01:49:02.014Z,-0.23
2023-03-16T01:51:42.175Z,-0.21
2023-03-16T01:54:22.025Z,-0.20
2023-03-16T01:57:04.762Z,-0.24
2023-03-16T02:00:10.985Z,-0.28
2023-03-16T02:03:09.946Z,-0.30
2023-03-16T02:05:54.056Z,-0.34
2023-03-16T02:08:28.477Z,-0.37
2023-03-16T02:11:02.100Z,-0.39
2023-03-16T02:13:50.224Z,-0.40
2023-03-16T02:16:22.906Z,-0.44
2023-03-16T02:18:56.054Z,-0.49
2023-03-16T02:21:36.824Z,-0.48
2023-03-16T02:24:09.751Z,-0.52
2023-03-16T02:26:47.750Z,-0.53
2023-03-16T02:29:43.064Z,-0.56
2023-03-16T02:32:16.601Z,-0.55
2023-03-16T02:34:48.871Z,-0.51
2023-03-16T02:37:21.935Z,-0.43
2023-03-16T02:39:53.991Z,-0.42
2023-03-16T02:42:28.718Z,-0.42
2023-03-16T02:45:04.658Z,-0.37
2023-03-16T02:47:43.191Z,-0.34
2023-03-16T02:50:15.852Z,-0.35
2023-03-16T02:52:48.770Z,-0.37
2023-03-16T02:55:21.819Z,-0.37
2023-03-16T02:57:53.913Z,-0.38
2023-03-16T03:00:27.162Z,-0.41
2023-03-16T03:02:59.797Z,-0.41
2023-03-16T03:05:31.952Z,-0.45
2023-03-16T03:08:04.166Z,-0.49
2023-03-16T03:10:36.436Z,-0.51
2023-03-16T03:13:08.972Z,-0.51
2023-03-16T03:15:41.154Z,-0.55
2023-03-16T03:18:15.069Z,-0.54
2023-03-16T03:20:47.211Z,-0.54
2023-03-16T03:23:19.196Z,-0.54
2023-03-16T03:25:51.208Z,-0.53
2023-03-16T03:28:23.406Z,-0.52
2023-03-16T03:30:56.729Z,-0.50
2023-03-16T03:33:29.091Z,-0.49
2023-03-16T03:36:03.463Z,-0.45
2023-03-16T03:38:39.909Z,-0.46
2023-03-16T03:41:12.969Z,-0.51
2023-03-16T03:43:46.909Z,-0.53
2023-03-16T03:46:20.959Z,-0.60
2023-03-16T03:48:53.221Z,-0.66
2023-03-16T03:51:25.342Z,-0.68
2023-03-16T03:54:04.093Z,-0.71
2023-03-16T03:57:03.820Z,-0.76
2023-03-16T03:59:42.709Z,-0.80
2023-03-16T04:02:17.925Z,-0.83
2023-03-16T04:04:54.661Z,-0.85
2023-03-16T04:07:26.717Z,-0.88
2023-03-16T04:10:00.200Z,-0.89
2023-03-16T04:12:37.291Z,-0.88
2023-03-16T04:15:12.607Z,-0.86
2023-03-16T04:18:03.747Z,-0.88
2023-03-16T04:20:36.794Z,-0.88
2023-03-16T04:23:09.202Z,-0.87
2023-03-16T04:25:42.344Z,-0.88
2023-03-16T04:28:18.164Z,-0.91
2023-03-16T04:30:51.456Z,-0.95
2023-03-16T04:33:28.401Z,-1.00
2023-03-16T04:36:02.636Z,-1.02
2023-03-16T04:38:36.092Z,-1.03
2023-03-16T04:41:08.932Z,-1.02
2023-03-16T04:43:44.687Z,-1.03
2023-03-16T04:46:24.700Z,-1.07
2023-03-16T04:48:58.547Z,-1.11
2023-03-16T04:51:31.624Z,-1.11
2023-03-16T04:54:09.715Z,-1.15
2023-03-16T04:56:44.053Z,-1.17
2023-03-16T04:59:23.204Z,-1.16
2023-03-16T05:02:02.794Z,-1.15
2023-03-16T05:04:35.117Z,-1.12
2023-03-16T05:07:07.740Z,-1.10
2023-03-16T05:09:41.874Z,-1.08
2023-03-16T05:12:31.893Z,-1.02
2023-03-16T05:15:08.220Z,-0.97
2023-03-16T05:17:48.629Z,-0.89
2023-03-16T05:20:22.525Z,-0.83
2023-03-16T05:22:56.909Z,-0.78
2023-03-16T05:25:32.266Z,-0.70
2023-03-16T05:28:08.235Z,-0.68
2023-03-16T05:31:03.728Z,-0.68
2023-03-16T05:33:41.046Z,-0.65
2023-03-16T05:36:15.182Z,-0.61
2023-03-16T05:38:48.750Z,-0.60
2023-03-16T05:41:47.469Z,-0.57
2023-03-16T05:44:33.641Z,-0.53
2023-03-16T05:47:15.453Z,-0.49
2023-03-16T05:49:50.650Z,-0.44
2023-03-16T05:52:30.636Z,-0.37
2023-03-16T05:55:03.552Z,-0.25
2023-03-16T05:57:36.346Z,-0.11
2023-03-16T06:00:15.436Z,0.05
2023-03-16T06:02:53.026Z,0.21
2023-03-16T06:05:28.879Z,0.34
2023-03-16T06:08:01.876Z,0.48
2023-03-16T06:10:34.487Z,0.61
2023-03-16T06:13:07.324Z,0.72
2023-03-16T06:15:39.473Z,0.84
2023-03-16T06:18:11.973Z,0.95
2023-03-16T06:20:44.608Z,1.06
2023-03-16T06:23:16.774Z,1.21
2023-03-16T06:25:49.792Z,1.37
2023-03-16T06:28:22.346Z,1.51
2023-03-16T06:30:58.872Z,1.66
2023-03-16T06:33:34.939Z,1.80
2023-03-16T06:36:09.216Z,1.95
2023-03-16T06:38:44.690Z,2.13
2023-03-16T06:41:44.643Z,2.38
2023-03-16T06:44:20.115Z,2.64
2023-03-16T06:47:18.655Z,2.86
2023-03-16T06:49:53.019Z,3.03
2023-03-16T06:52:26.302Z,3.13
2023-03-16T06:54:59.041Z,3.25
2023-03-16T06:57:31.896Z,3.34
2023-03-16T07:00:05.120Z,3.44
2023-03-16T07:02:39.751Z,3.56
2023-03-16T07:05:14.360Z,3.65
2023-03-16T07:08:05.408Z,3.83
2023-03-16T07:10:55.913Z,4.01
2023-03-16T07:13:28.596Z,4.17
2023-03-16T07:16:02.769Z,4.28
2023-03-16T07:18:38.213Z,4.44
2023-03-16T07:21:14.459Z,4.59
2023-03-16T07:23:48.087Z,4.75
2023-03-16T07:26:23.944Z,4.88
2023-03-16T07:29:00.901Z,5.04
2023-03-16T07:31:42.972Z,5.12
2023-03-16T07:34:22.327Z,5.22
2023-03-16T07:37:02.031Z,5.33
2023-03-16T07:39:37.392Z,5.50
2023-03-16T07:42:16.775Z,5.64
2023-03-16T07:45:17.929Z,5.66
2023-03-16T07:47:52.253Z,5.68
2023-03-16T07:50:34.554Z,5.78
2023-03-16T07:53:12.602Z,5.80
2023-03-16T07:55:46.164Z,5.92
2023-03-16T07:58:23.351Z,6.06
2023-03-16T08:01:06.270Z,6.13
2023-03-16T08:03:41.056Z,6.20
2023-03-16T08:06:13.618Z,6.29
2023-03-16T08:08:46.220Z,6.38
2023-03-16T08:11:24.980Z,6.38
2023-03-16T08:14:05.714Z,6.40
2023-03-16T08:16:55.588Z,6.48
2023-03-16T08:19:35.182Z,6.55
2023-03-16T08:22:09.170Z,6.61
2023-03-16T08:24:45.965Z,6.68
2023-03-16T08:27:20.612Z,6.79
2023-03-16T08:29:56.589Z,6.83
2023-03-16T08:32:33.589Z,6.89
2023-03-16T08:35:07.155Z,6.98
2023-03-16T08:37:54.612Z,7.11
2023-03-16T08:40:29.873Z,7.17
2023-03-16T08:43:05.374Z,7.14
2023-03-16T08:45:38.856Z,7.23
2023-03-16T08:48:13.382Z,7.26
2023-03-16T08:50:47.875Z,7.36
2023-03-16T08:53:21.223Z,7.50
2023-03-16T08:55:53.645Z,7.59
2023-03-16T08:58:26.631Z,7.71
2023-03-16T09:00:59.771Z,7.78
2023-03-16T09:03:33.229Z,7.85
2023-03-16T09:06:09.920Z,7.98
2023-03-16T09:08:44.346Z,8.03
2023-03-16T09:11:18.854Z,8.13
2023-03-16T09:13:54.514Z,8.06
2023-03-16T09:16:28.321Z,8.07
2023-03-16T09:19:01.459Z,8.06
2023-03-16T09:21:36.318Z,8.17
2023-03-16T09:24:10.436Z,8.32
2023-03-16T09:26:42.858Z,8.44
2023-03-16T09:29:16.710Z,8.55
2023-03-16T09:31:51.223Z,8.72
2023-03-16T09:34:29.970Z,8.97
2023-03-16T09:37:03.240Z,9.14
2023-03-16T09:39:37.204Z,9.07
2023-03-16T09:42:19.633Z,8.76
2023-03-16T09:45:05.618Z,8.62
2023-03-16T09:47:39.788Z,8.70
2023-03-16T09:50:23.175Z,8.99
2023-03-16T09:53:04.340Z,9.19
2023-03-16T09:55:39.662Z,9.42
2023-03-16T09:58:17.733Z,9.72
2023-03-16T10:01:05.176Z,9.94
2023-03-16T10:04:02.010Z,10.01
2023-03-16T10:06:45.111Z,9.83
2023-03-16T10:09:30.429Z,10.09
2023-03-16T10:12:06.292Z,10.49
2023-03-16T10:14:46.961Z,10.85
2023-03-16T10:17:25.172Z,10.64
2023-03-16T10:20:02.584Z,10.39
2023-03-16T10:22:39.544Z,10.02
2023-03-16T10:25:21.659Z,9.63
2023-03-16T10:27:54.948Z,9.35
2023-03-16T10:30:32.881Z,9.14
2023-03-16T10:33:15.634Z,9.04
2023-03-16T10:35:52.657Z,9.29
2023-03-16T10:38:38.938Z,9.75
2023-03-16T10:41:25.689Z,10.02
2023-03-16T10:44:07.739Z,9.80
2023-03-16T10:46:43.011Z,9.97
2023-03-16T10:49:30.210Z,10.13
2023-03-16T10:52:08.149Z,10.59
2023-03-16T10:54:50.020Z,10.86
2023-03-16T10:57:27.287Z,10.56
2023-03-16T11:00:20.785Z,10.06
2023-03-16T11:02:56.842Z,9.61
2023-03-16T11:05:34.480Z,9.42
2023-03-16T11:08:21.989Z,9.35
2023-03-16T11:11:00.165Z,10.77
2023-03-16T11:13:39.254Z,11.42
2023-03-16T11:16:34.633Z,10.85
2023-03-16T11:19:26.210Z,10.35
2023-03-16T11:22:05.947Z,9.83
2023-03-16T11:24:50.925Z,9.49
2023-03-16T11:27:27.983Z,9.19
2023-03-16T11:30:13.635Z,9.29
2023-03-16T11:32:53.667Z,10.00
2023-03-16T11:35:35.285Z,10.01
2023-03-16T11:38:19.045Z,9.86
2023-03-16T11:41:01.817Z,10.03
2023-03-16T11:43:54.309Z,10.49
2023-03-16T11:46:31.623Z,11.25
2023-03-16T11:49:30.093Z,11.82
2023-03-16T11:52:15.548Z,11.81
2023-03-16T11:55:02.715Z,11.64
2023-03-16T11:57:51.745Z,11.98
2023-03-16T12:00:35.980Z,13.33
2023-03-16T12:03:38.440Z,13.45
2023-03-16T12:06:30.821Z,13.94
2023-03-16T12:09:31.200Z,13.56
2023-03-16T12:12:17.527Z,14.99
2023-03-16T12:15:00.231Z,13.87
2023-03-16T12:17:37.770Z,13.51
2023-03-16T12:20:19.886Z,13.06
2023-03-16T12:22:56.739Z,12.69
2023-03-16T12:25:36.746Z,12.55
2023-03-16T12:28:17.992Z,12.43
2023-03-16T12:30:55.220Z,12.52
2023-03-16T12:33:50.727Z,12.54
2023-03-16T12:36:43.421Z,12.71
2023-03-16T12:39:25.014Z,13.14
2023-03-16T12:42:08.471Z,14.04
2023-03-16T12:44:48.613Z,15.75
2023-03-16T12:47:29.750Z,17.16
2023-03-16T12:50:09.510Z,18.85
2023-03-16T12:52:48.024Z,20.37
2023-03-16T12:55:27.989Z,21.46
2023-03-16T12:58:06.578Z,22.09
2023-03-16T13:00:44.542Z,21.41
2023-03-16T13:03:23.539Z,20.89
2023-03-16T13:06:01.297Z,20.93
2023-03-16T13:08:47.949Z,22.09
2023-03-16T13:11:24.410Z,23.36
2023-03-16T13:14:11.325Z,24.19
2023-03-16T13:16:45.742Z,24.57
2023-03-16T13:19:32.816Z,24.68
2023-03-16T13:22:20.981Z,25.39
2023-03-16T13:25:01.277Z,25.86
2023-03-16T13:27:37.038Z,26.00
2023-03-16T13:30:28.939Z,26.08
2023-03-16T13:33:18.852Z,26.52
2023-03-16T13:35:53.608Z,27.05
2023-03-16T13:38:30.579Z,27.38
2023-03-16T13:41:06.439Z,27.70
2023-03-16T13:43:50.108Z,27.82
2023-03-16T13:46:29.139Z,25.52
2023-03-16T13:49:05.866Z,25.34
2023-03-16T13:51:42.325Z,25.53
2023-03-16T13:54:23.668Z,26.30
2023-03-16T13:56:59.227Z,26.67
2023-03-16T13:59:30.160Z,27.01
2023-03-16T14:02:03.807Z,26.95
2023-03-16T14:04:36.490Z,27.39
2023-03-16T14:07:18.995Z,27.93
2023-03-16T14:09:52.657Z,28.15
2023-03-16T14:12:26.713Z,28.03
2023-03-16T14:14:59.808Z,28.73
2023-03-16T14:17:32.503Z,28.92
2023-03-16T14:20:05.491Z,28.44
2023-03-16T14:22:39.952Z,28.39
2023-03-16T14:25:18.726Z,28.64
2023-03-16T14:27:58.396Z,27.74
2023-03-16T14:30:32.303Z,26.93
2023-03-16T14:33:06.972Z,26.42
2023-03-16T14:35:45.055Z,26.53
2023-03-16T14:38:29.820Z,23.37
2023-03-16T14:41:08.047Z,20.93
2023-03-16T14:43:46.202Z,19.18
2023-03-16T14:46:25.471Z,18.30
2023-03-16T14:49:07.891Z,17.69
2023-03-16T14:51:42.109Z,18.92
2023-03-16T14:54:18.116Z,19.57
2023-03-16T14:56:53.624Z,20.13
2023-03-16T14:59:25.856Z,20.85
2023-03-16T15:01:58.342Z,21.25
2023-03-16T15:04:33.560Z,21.98
2023-03-16T15:07:20.267Z,21.87
2023-03-16T15:09:53.862Z,22.61
2023-03-16T15:12:26.342Z,23.08
2023-03-16T15:15:18.370Z,22.47
2023-03-16T15:17:52.132Z,22.77
2023-03-16T15:20:30.589Z,21.07
2023-03-16T15:23:05.016Z,20.13
2023-03-16T15:25:39.377Z,18.95
2023-03-16T15:28:17.575Z,17.63
2023-03-16T15:30:51.017Z,16.35
2023-03-16T15:33:23.508Z,15.19
2023-03-16T15:35:57.181Z,14.19
2023-03-16T15:38:31.434Z,13.34
2023-03-16T15:41:03.868Z,12.73
2023-03-16T15:43:35.982Z,12.00
2023-03-16T15:46:09.100Z,11.42
2023-03-16T15:48:41.495Z,10.92
2023-03-16T15:51:22.495Z,10.51
2023-03-16T15:53:58.648Z,10.28
2023-03-16T15:56:44.004Z,10.04
2023-03-16T15:59:23.675Z,9.95
2023-03-16T16:01:55.670Z,9.72
2023-03-16T16:04:27.714Z,9.57
2023-03-16T16:07:02.374Z,9.27
2023-03-16T16:09:37.931Z,8.93
2023-03-16T16:12:14.403Z,8.65
2023-03-16T16:14:46.783Z,8.58
2023-03-16T16:17:36.426Z,8.50
2023-03-16T16:20:21.704Z,8.38
2023-03-16T16:22:55.334Z,8.24
2023-03-16T16:25:30.559Z,8.11
2023-03-16T16:28:02.935Z,8.01
2023-03-16T16:30:34.992Z,7.92
2023-03-16T16:33:20.891Z,7.74
2023-03-16T16:35:53.024Z,7.58
2023-03-16T16:38:25.827Z,7.42
2023-03-16T16:41:00.832Z,7.29
2023-03-16T16:43:38.869Z,7.20
2023-03-16T16:46:17.497Z,7.10
2023-03-16T16:48:52.070Z,6.98
2023-03-16T16:51:26.710Z,6.85
2023-03-16T16:54:00.881Z,6.67
2023-03-16T16:56:36.631Z,6.46
2023-03-16T16:59:18.919Z,6.29
2023-03-16T17:01:50.984Z,6.07
2023-03-16T17:04:26.063Z,5.87
2023-03-16T17:07:02.158Z,5.74
2023-03-16T17:09:34.452Z,5.59
2023-03-16T17:12:16.451Z,5.45
2023-03-16T17:14:49.357Z,5.26
2023-03-16T17:17:22.552Z,5.11
2023-03-16T17:19:54.697Z,4.98
2023-03-16T17:22:28.721Z,4.88
2023-03-16T17:25:00.834Z,4.80
2023-03-16T17:27:34.444Z,4.70
2023-03-16T17:30:11.223Z,4.59
2023-03-16T17:32:43.489Z,4.47
2023-03-16T17:35:18.132Z,4.34
2023-03-16T17:37:50.798Z,4.22
2023-03-16T17:40:25.966Z,4.12
2023-03-16T17:42:57.962Z,4.02
2023-03-16T17:45:31.090Z,3.92
2023-03-16T17:48:05.419Z,3.81
2023-03-16T17:50:37.518Z,3.68
2023-03-16T17:53:09.678Z,3.57
2023-03-16T17:55:42.593Z,3.47
2023-03-16T17:58:25.804Z,3.35
2023-03-16T18:00:58.583Z,3.30
2023-03-16T18:03:31.507Z,3.26
2023-03-16T18:06:04.083Z,3.26
2023-03-16T18:08:36.989Z,3.22
2023-03-16T18:11:17.055Z,3.16
2023-03-16T18:13:51.199Z,3.12
2023-03-16T18:16:28.390Z,3.11
2023-03-16T18:19:05.765Z,3.12
2023-03-16T18:21:39.582Z,3.14
2023-03-16T18:24:17.195Z,3.15
2023-03-16T18:26:49.968Z,3.12
2023-03-16T18:29:22.740Z,3.03
2023-03-16T18:31:59.392Z,2.89
2023-03-16T18:34:36.305Z,2.80
2023-03-16T18:37:15.042Z,2.75
2023-03-16T18:39:48.334Z,2.74
2023-03-16T18:42:24.150Z,2.72
2023-03-16T18:44:57.226Z,2.68
2023-03-16T18:47:31.798Z,2.67
2023-03-16T18:50:04.605Z,2.63
2023-03-16T18:52:39.487Z,2.59
2023-03-16T18:55:18.756Z,2.57
2023-03-16T18:57:56.421Z,2.45
2023-03-16T19:00:30.159Z,2.38
2023-03-16T19:03:04.920Z,2.28
2023-03-16T19:05:39.773Z,2.14
2023-03-16T19:08:16.381Z,1.91
2023-03-16T19:10:54.487Z,1.91
2023-03-16T19:13:28.613Z,1.93
2023-03-16T19:16:08.379Z,1.86
2023-03-16T19:18:43.162Z,1.74
2023-03-16T19:21:23.074Z,1.68
2023-03-16T19:24:00.628Z,1.60
2023-03-16T19:26:34.813Z,1.54
2023-03-16T19:29:12.591Z,1.45
2023-03-16T19:31:46.097Z,1.31
2023-03-16T19:34:20.110Z,1.36
2023-03-16T19:36:53.292Z,1.44
2023-03-16T19:39:26.523Z,1.42
2023-03-16T19:42:03.869Z,1.32
2023-03-16T19:44:37.595Z,1.21
2023-03-16T19:47:28.839Z,1.11
2023-03-16T19:50:03.205Z,1.08
2023-03-16T19:52:37.436Z,1.06
2023-03-16T19:55:19.506Z,1.02
2023-03-16T19:58:01.587Z,0.93
2023-03-16T20:00:36.193Z,0.80
2023-03-16T20:03:12.616Z,0.79
2023-03-16T20:05:45.015Z,0.71
2023-03-16T20:08:29.183Z,0.61
2023-03-16T20:11:04.113Z,0.51
2023-03-16T20:13:38.626Z,0.42
2023-03-16T20:16:16.470Z,0.44
2023-03-16T20:18:50.244Z,0.40
2023-03-16T20:21:25.366Z,0.37
2023-03-16T20:24:01.851Z,0.28
2023-03-16T20:26:35.705Z,0.21
2023-03-16T20:29:20.101Z,0.21
2023-03-16T20:31:52.446Z,0.29
2023-03-16T20:34:27.766Z,0.31
2023-03-16T20:37:00.625Z,0.29
2023-03-16T20:39:33.154Z,0.28
2023-03-16T20:42:05.702Z,0.31
2023-03-16T20:44:38.820Z,0.35
2023-03-16T20:47:17.734Z,0.30
2023-03-16T20:49:51.753Z,0.20
2023-03-16T20:52:27.247Z,0.16
2023-03-16T20:55:01.209Z,0.16
2023-03-16T20:57:34.349Z,0.18
2023-03-16T21:00:19.545Z,0.15
2023-03-16T21:03:15.532Z,0.07
2023-03-16T21:05:48.390Z,0.07
2023-03-16T21:08:21.564Z,-0.04
2023-03-16T21:10:56.911Z,-0.12
2023-03-16T21:13:32.326Z,-0.14
2023-03-16T21:16:05.523Z,-0.22
2023-03-16T21:18:38.259Z,-0.30
2023-03-16T21:21:15.313Z,-0.41
2023-03-16T21:23:48.243Z,-0.45
2023-03-16T21:26:24.495Z,-0.43
2023-03-16T21:29:01.142Z,-0.42
2023-03-16T21:31:33.478Z,-0.42
2023-03-16T21:34:06.447Z,-0.40
2023-03-16T21:36:38.658Z,-0.39
2023-03-16T21:39:19.747Z,-0.37
2023-03-16T21:41:52.369Z,-0.38
2023-03-16T21:44:24.706Z,-0.46
2023-03-16T21:46:57.218Z,-0.59
2023-03-16T21:49:29.506Z,-0.61
2023-03-16T21:52:02.510Z,-0.62
2023-03-16T21:54:34.666Z,-0.58
2023-03-16T21:57:15.325Z,-0.59
2023-03-16T21:59:47.435Z,-0.56
2023-03-16T22:02:24.634Z,-0.56
2023-03-16T22:04:59.137Z,-0.53
2023-03-16T22:07:31.819Z,-0.59
2023-03-16T22:10:03.987Z,-0.66
2023-03-16T22:12:36.403Z,-0.67
2023-03-16T22:15:10.533Z,-0.68
2023-03-16T22:17:42.835Z,-0.75
2023-03-16T22:20:20.458Z,-0.91
2023-03-16T22:22:53.693Z,-1.04
2023-03-16T22:25:28.028Z,-1.09
2023-03-16T22:28:00.325Z,-1.14
2023-03-16T22:30:32.807Z,-1.20
2023-03-16T22:33:06.047Z,-1.26
2023-03-16T22:35:39.760Z,-1.32
2023-03-16T22:38:16.588Z,-1.36
2023-03-16T22:40:48.867Z,-1.34
2023-03-16T22:43:25.622Z,-1.28
2023-03-16T22:45:57.885Z,-1.29
2023-03-16T22:48:31.897Z,-1.38
2023-03-16T22:51:05.879Z,-1.43
2023-03-16T22:53:41.231Z,-1.41
2023-03-16T22:56:13.626Z,-1.40
2023-03-16T22:58:50.078Z,-1.44
2023-03-16T23:01:21.781Z,-1.49
2023-03-16T23:03:54.933Z,-1.54
2023-03-16T23:06:29.021Z,-1.51
2023-03-16T23:09:01.695Z,-1.49
2023-03-16T23:11:36.579Z,-1.39
2023-03-16T23:14:14.997Z,-1.22
2023-03-16T23:16:48.311Z,-1.12
2023-03-16T23:19:26.869Z,-1.16
2023-03-16T23:22:01.589Z,-1.23
2023-03-16T23:24:33.880Z,-1.26
2023-03-16T23:27:08.484Z,-1.27
2023-03-16T23:29:41.334Z,-1.31
2023-03-16T23:32:14.331Z,-1.42
2023-03-16T23:34:46.560Z,-1.43
2023-03-16T23:37:19.330Z,-1.37
2023-03-16T23:39:51.525Z,-1.35
2023-03-16T23:42:23.703Z,-1.41
2023-03-16T23:44:56.024Z,-1.47
2023-03-16T23:47:28.520Z,-1.47
2023-03-16T23:50:00.970Z,-1.45
2023-03-16T23:52:33.011Z,-1.40
2023-03-16T23:55:05.639Z,-1.35
2023-03-16T23:57:37.719Z,-1.37
